NCAR-RAP Real-Time Weather Data

Output produced by METARs form (10 April 2020  07:17 UTC)
found at http://weather.rap.ucar.edu/surface/
 
KTXK 100653Z AUTO 03007KT 10SM CLR 16/06 A3002 RMK AO2 SLP161 T01610056
KTXK 100553Z AUTO 03006KT 10SM CLR 16/10 A3001 RMK AO2 SLP159 T01610100 10206 20161 402390161 53019
KTXK 100453Z AUTO 01005KT 10SM CLR 17/11 A2999 RMK AO2 SLP152 T01720111
KTXK 100353Z AUTO 00000KT 10SM CLR 17/12 A2997 RMK AO2 SLP145 T01670122
KTXK 100253Z AUTO 00000KT 10SM OVC070 18/12 A2995 RMK AO2 SLP139 T01780122 53023
KTXK 100153Z 00000KT 10SM OVC060 19/09 A2992 RMK AO2 SLP127 T01940094
KTXK 100053Z 03003KT 10SM SCT060 19/09 A2989 RMK AO2 SLP116 T01940094
KTXK 092353Z 02006KT 10SM CLR 21/09 A2989 RMK AO2 SLP116 T02060089 10239 20206 55006
KTXK 092253Z 02009KT 10SM CLR 22/10 A2988 RMK AO2 SLP114 T02220100
KTXK 092153Z 03008KT 10SM CLR 23/11 A2988 RMK AO2 SLP115 T02280111
KTXK 092053Z 07006KT 10SM CLR 23/11 A2990 RMK AO2 SLP121 T02330111 58017
KTXK 091953Z 07006KT 10SM CLR 23/11 A2992 RMK AO2 SLP127 T02330111
KTXK 091853Z 04007G14KT 10SM CLR 23/11 A2995 RMK AO2 SLP136 T02280106
KTXK 091753Z 06011G17KT 10SM CLR 23/10 A2995 RMK AO2 SLP138 T02280100 10228 20194 58001
KTXK 091653Z 05011KT 10SM CLR 22/10 A2998 RMK AO2 SLP148 T02220100
KTXK 091553Z 06013KT 10SM CLR 21/10 A2997 RMK AO2 SLP144 T02060100
KTXK 091453Z 06013G19KT 10SM CLR 20/10 A2996 RMK AO2 SLP139 T02000100
KTXK 091353Z 05011G16KT 10SM CLR 19/11 A2994 RMK AO2 SLP134 T01940111 $
KTXK 091253Z 06011G22KT 10SM CLR 19/11 A2993 RMK AO2 SLP129 T01940111
KTXK 091153Z 06009KT 10SM CLR 20/14 A2988 RMK AO2 SLP112 T02000144 10239 20194 53023
KTXK 091053Z 07003KT 10SM CLR 21/17 A2985 RMK AO2 SLP103 T02060172 $
KTXK 090953Z AUTO 34003KT 10SM CLR 21/17 A2983 RMK AO2 SLP095 T02110172 $
KTXK 090853Z AUTO 27004KT 8SM CLR 21/19 A2981 RMK AO2 SLP088 T02110194 53006 $